This is the latest recevied weather packets stored in our database for station/object KE8ZLU. If no packets are shown the sender has not sent any weather packets the latest 10 day(s).
| Time | Temp. | Humidity | Pressure | Rain* | Wind** | Luminosity | Snow |
|---|---|---|---|---|---|---|---|
| 1777557302 | 5.56° C | 85% | 1016.5 hPa | 0 mm | - | 280 W/m² | - |
| 1777556998 | 5.56° C | 85% | 1016.6 hPa | 0 mm | - | 280 W/m² | - |
| 1777556694 | 5.56° C | 85% | 1016.5 hPa | 0 mm | - | 280 W/m² | - |
| 1777556390 | 5.56° C | 85% | 1016.6 hPa | 0 mm | - | 280 W/m² | - |
| 1777556085 | 5.56° C | 85% | 1016.5 hPa | 0 mm | - | 280 W/m² | - |
| 1777555785 | 5.56° C | 85% | 1016.4 hPa | 0 mm | - | 280 W/m² | - |
| 1777555482 | 5.56° C | 88% | 1016.6 hPa | 0 mm | - | 236 W/m² | - |
| 1777555178 | 5.56° C | 87% | 1016.6 hPa | 0 mm | - | 162 W/m² | - |
| 1777554876 | 5.56° C | 90% | 1016.4 hPa | 0 mm | - | 134 W/m² | - |
| 1777554572 | 5.56° C | 90% | 1016.3 hPa | 0 mm | - | 134 W/m² | - |
| 1777554269 | 5° C | 91% | 1016.4 hPa | 0 mm | - | 109 W/m² | - |
| 1777553966 | 5° C | 91% | 1016.4 hPa | 0 mm | - | 109 W/m² | - |
| 1777553662 | 3.89° C | 96% | 1016.4 hPa | 0 mm | - | 57 W/m² | - |
| 1777553359 | 3.89° C | 96% | 1016.4 hPa | 0 mm | - | 57 W/m² | - |
| 1777553055 | 3.89° C | 96% | 1016.5 hPa | 0 mm | - | 57 W/m² | - |
| 1777552750 | 3.89° C | 96% | 1016.6 hPa | 0 mm | - | 57 W/m² | - |
| 1777552447 | 3.89° C | 96% | 1016.4 hPa | 0 mm | - | 57 W/m² | - |
| 1777552143 | 3.89° C | 96% | 1016.4 hPa | 0 mm | - | 57 W/m² | - |
| 1777551840 | 3.89° C | 96% | 1016.4 hPa | 0 mm | - | 57 W/m² | - |
| 1777551538 | 3.89° C | 96% | 1016.5 hPa | 0 mm | - | 57 W/m² | - |
| 1777551229 | 3.89° C | 96% | 1016.5 hPa | 0 mm | - | 57 W/m² | - |
| 1777550926 | 3.33° C | 98% | 1016.7 hPa | 0 mm | - | 36 W/m² | - |
| 1777550622 | 3.33° C | 98% | 1016.4 hPa | 0 mm | - | 36 W/m² | - |
| 1777550318 | 3.33° C | 98% | 1016.3 hPa | 0 mm | - | 36 W/m² | - |
| 1777550014 | 3.33° C | 98% | 1016.4 hPa | 0 mm | - | 39 W/m² | - |
* Rain latest hour (hover to see other rain measurements)
** Current wind speed in m/s (hover to see current wind gust speed)